createdAt,value
2022-12-16T00:01:07.766Z,98867.41
2022-12-16T00:03:36.651Z,98866.78
2022-12-16T00:06:04.894Z,98871.91
2022-12-16T00:08:36.177Z,98868.66
2022-12-16T00:11:03.650Z,98880.69
2022-12-16T00:13:33.487Z,98876.59
2022-12-16T00:16:05.131Z,98890.16
2022-12-16T00:18:32.599Z,98887.63
2022-12-16T00:21:00.007Z,98890.78
2022-12-16T00:23:28.298Z,98895.69
2022-12-16T00:25:55.783Z,98894.84
2022-12-16T00:28:23.283Z,98901.69
2022-12-16T00:30:53.337Z,98904.94
2022-12-16T00:33:23.858Z,98889.06
2022-12-16T00:35:51.785Z,98895.16
2022-12-16T00:38:19.414Z,98896.16
2022-12-16T00:40:47.464Z,98909.44
2022-12-16T00:43:15.120Z,98902.09
2022-12-16T00:45:42.530Z,98904.84
2022-12-16T00:48:11.355Z,98914.81
2022-12-16T00:50:38.943Z,98922.84
2022-12-16T00:53:06.405Z,98930.09
2022-12-16T00:55:33.868Z,98925.84
2022-12-16T00:58:01.306Z,98928.53
2022-12-16T01:00:28.726Z,98932.84
2022-12-16T01:02:56.214Z,98945.25
2022-12-16T01:05:26.897Z,98947.53
2022-12-16T01:07:55.216Z,98950.28
2022-12-16T01:10:22.695Z,98952.56
2022-12-16T01:12:50.126Z,98954.22
2022-12-16T01:15:18.256Z,98958.34
2022-12-16T01:17:45.704Z,98952.97
2022-12-16T01:20:14.169Z,98950.88
2022-12-16T01:22:42.973Z,98959.06
2022-12-16T01:25:12.798Z,98959.69
2022-12-16T01:27:40.270Z,98950.38
2022-12-16T01:30:08.979Z,98956.06
2022-12-16T01:32:36.508Z,98958.41
2022-12-16T01:35:10.694Z,98955.34
2022-12-16T01:37:47.404Z,98965.31
2022-12-16T01:40:17.974Z,98962.59
2022-12-16T01:42:45.889Z,98963.13
2022-12-16T01:45:28.923Z,98968.44
2022-12-16T01:47:58.131Z,98961.81
2022-12-16T01:50:26.630Z,98969.38
2022-12-16T01:52:58.293Z,98965.91
2022-12-16T01:55:28.655Z,98968.88
2022-12-16T01:57:57.295Z,98961.91
2022-12-16T02:00:24.743Z,98967.56
2022-12-16T02:02:52.509Z,98971.69
2022-12-16T02:05:22.821Z,98970.09
2022-12-16T02:07:55.399Z,98965.91
2022-12-16T02:10:28.665Z,98962.97
2022-12-16T02:12:59.607Z,98970.63
2022-12-16T02:15:35.252Z,98972.63
2022-12-16T02:18:06.916Z,98973.66
2022-12-16T02:20:51.376Z,98982.63
2022-12-16T02:23:38.173Z,98979.31
2022-12-16T02:26:36.748Z,98979.47
2022-12-16T02:29:19.821Z,98985.38
2022-12-16T02:31:53.972Z,98980.44
2022-12-16T02:34:30.881Z,98979.66
2022-12-16T02:37:03.840Z,98976.34
2022-12-16T02:39:36.728Z,98981.25
2022-12-16T02:42:08.773Z,98981.31
2022-12-16T02:44:41.361Z,98987.75
2022-12-16T02:47:10.075Z,98993.75
2022-12-16T02:49:47.355Z,98997.06
2022-12-16T02:52:15.366Z,99004.38
2022-12-16T02:54:43.938Z,99003.59
2022-12-16T02:57:18.244Z,99009.41
2022-12-16T02:59:50.940Z,99013.78
2022-12-16T03:02:22.080Z,99019.78
2022-12-16T03:04:52.233Z,99006.38
2022-12-16T03:07:21.434Z,99009.06
2022-12-16T03:09:50.071Z,99015.84
2022-12-16T03:12:19.048Z,99020.31
2022-12-16T03:14:49.253Z,99015.31
2022-12-16T03:17:17.992Z,99020.72
2022-12-16T03:19:50.727Z,99015.34
2022-12-16T03:22:21.132Z,99017.78
2022-12-16T03:24:49.342Z,99017.84
2022-12-16T03:27:19.373Z,99024.63
2022-12-16T03:29:51.431Z,99027.00
2022-12-16T03:32:23.454Z,99028.41
2022-12-16T03:34:53.947Z,99029.19
2022-12-16T03:37:23.269Z,99033.47
2022-12-16T03:39:52.436Z,99035.19
2022-12-16T03:42:19.846Z,99031.72
2022-12-16T03:44:48.497Z,99035.25
2022-12-16T03:47:21.448Z,99036.78
2022-12-16T03:49:52.317Z,99038.16
2022-12-16T03:52:19.748Z,99040.69
2022-12-16T03:54:47.181Z,99039.03
2022-12-16T03:57:15.661Z,99043.34
2022-12-16T03:59:43.262Z,99048.34
2022-12-16T04:02:10.862Z,99050.00
2022-12-16T04:04:38.410Z,99060.44
2022-12-16T04:07:22.100Z,99050.34
2022-12-16T04:09:50.209Z,99061.22
2022-12-16T04:12:35.114Z,99063.91
2022-12-16T04:15:19.877Z,99067.72
2022-12-16T04:18:04.845Z,99063.56
2022-12-16T04:20:59.227Z,99079.69
2022-12-16T04:23:46.938Z,99064.25
2022-12-16T04:26:14.589Z,99076.16
2022-12-16T04:28:42.163Z,99075.03
2022-12-16T04:31:09.812Z,99081.81
2022-12-16T04:33:55.152Z,99072.59
2022-12-16T04:36:42.211Z,99080.28
2022-12-16T04:39:28.258Z,99079.41
2022-12-16T04:42:13.578Z,99081.22
2022-12-16T04:44:58.793Z,99087.94
2022-12-16T04:47:44.067Z,99089.81
2022-12-16T04:50:28.865Z,99094.69
2022-12-16T04:53:13.817Z,99103.03
2022-12-16T04:56:04.134Z,99109.31
2022-12-16T04:58:49.930Z,99104.25
2022-12-16T05:01:34.887Z,99111.03
2022-12-16T05:04:20.245Z,99116.09
2022-12-16T05:07:04.953Z,99119.28
2022-12-16T05:09:49.790Z,99117.28
2022-12-16T05:12:35.646Z,99120.59
2022-12-16T05:15:28.866Z,99129.44
2022-12-16T05:18:15.985Z,99134.41
2022-12-16T05:21:00.897Z,99140.31
2022-12-16T05:23:45.662Z,99151.88
2022-12-16T05:26:30.538Z,99154.59
2022-12-16T05:29:16.732Z,99164.69
2022-12-16T05:32:01.427Z,99166.66
2022-12-16T05:34:46.177Z,99178.28
2022-12-16T05:37:31.056Z,99174.03
2022-12-16T05:40:16.025Z,99181.31
2022-12-16T05:43:03.343Z,99178.88
2022-12-16T05:45:49.538Z,99188.09
2022-12-16T05:48:34.333Z,99195.38
2022-12-16T05:51:19.011Z,99203.03
2022-12-16T05:54:04.000Z,99206.06
2022-12-16T05:56:48.682Z,99215.53
2022-12-16T05:59:33.669Z,99222.91
2022-12-16T06:02:19.691Z,99219.81
2022-12-16T06:05:05.001Z,99219.88
2022-12-16T06:08:04.258Z,99229.56
2022-12-16T06:10:49.247Z,99225.00
2022-12-16T06:13:34.409Z,99226.16
2022-12-16T06:16:19.516Z,99231.78
2022-12-16T06:19:05.992Z,99239.31
2022-12-16T06:21:50.888Z,99242.28
2022-12-16T06:24:36.005Z,99243.53
2022-12-16T06:27:20.834Z,99250.78
2022-12-16T06:30:05.656Z,99254.66
2022-12-16T06:32:50.548Z,99251.97
2022-12-16T06:35:36.712Z,99259.91
2022-12-16T06:38:30.211Z,99278.44
2022-12-16T06:41:15.136Z,99285.97
2022-12-16T06:44:00.077Z,99286.50
2022-12-16T06:46:45.043Z,99292.56
2022-12-16T06:49:26.427Z,99303.44
2022-12-16T06:52:12.659Z,99309.34
2022-12-16T06:54:57.545Z,99304.97
2022-12-16T06:57:42.320Z,99309.19
2022-12-16T07:00:28.202Z,99316.88
2022-12-16T07:03:12.988Z,99315.19
2022-12-16T07:05:58.006Z,99312.13
2022-12-16T07:08:44.144Z,99323.88
2022-12-16T07:11:29.093Z,99335.69
2022-12-16T07:14:19.234Z,99337.09
2022-12-16T07:17:03.943Z,99346.00
2022-12-16T07:19:48.861Z,99340.09
2022-12-16T07:22:34.103Z,99365.94
2022-12-16T07:25:20.137Z,99361.56
2022-12-16T07:28:05.168Z,99359.41
2022-12-16T07:30:51.648Z,99364.00
2022-12-16T07:33:36.795Z,99362.91
2022-12-16T07:36:21.870Z,99377.03
2022-12-16T07:39:06.819Z,99383.78
2022-12-16T07:41:53.314Z,99394.22
2022-12-16T07:44:38.404Z,99403.84
2022-12-16T07:47:23.302Z,99393.56
2022-12-16T07:50:08.057Z,99406.50
2022-12-16T07:52:53.476Z,99411.81
2022-12-16T07:55:40.584Z,99405.16
2022-12-16T07:58:26.839Z,99416.53
2022-12-16T08:01:11.728Z,99411.06
2022-12-16T08:03:56.899Z,99420.78
2022-12-16T08:06:41.982Z,99427.47
2022-12-16T08:09:26.803Z,99432.06
2022-12-16T08:12:11.701Z,99427.78
2022-12-16T08:14:57.811Z,99424.84
2022-12-16T08:17:42.719Z,99442.34
2022-12-16T08:20:27.972Z,99437.31
2022-12-16T08:23:12.826Z,99446.75
2022-12-16T08:25:57.782Z,99450.03
2022-12-16T08:28:42.703Z,99458.63
2022-12-16T08:31:28.830Z,99461.81
2022-12-16T08:34:14.184Z,99468.81
2022-12-16T08:36:59.017Z,99472.31
2022-12-16T08:39:43.893Z,99475.59
2022-12-16T08:42:28.528Z,99473.84
2022-12-16T08:45:18.566Z,99486.00
2022-12-16T08:48:19.259Z,99486.97
2022-12-16T08:51:04.038Z,99488.53
2022-12-16T08:54:00.436Z,99490.03
2022-12-16T08:56:45.247Z,99498.59
2022-12-16T08:59:30.035Z,99497.06
2022-12-16T09:02:14.854Z,99502.31
2022-12-16T09:05:01.126Z,99502.31
2022-12-16T09:07:46.661Z,99513.91
2022-12-16T09:10:37.605Z,99521.66
2022-12-16T09:13:26.088Z,99523.63
2022-12-16T09:16:15.722Z,99535.00
2022-12-16T09:19:02.571Z,99543.66
2022-12-16T09:21:48.670Z,99541.00
2022-12-16T09:24:33.587Z,99542.94
2022-12-16T09:27:18.432Z,99541.78
2022-12-16T09:30:03.242Z,99539.28
2022-12-16T09:32:48.175Z,99538.00
2022-12-16T09:35:33.035Z,99533.63
2022-12-16T09:38:19.248Z,99537.13
2022-12-16T09:41:04.047Z,99544.09
2022-12-16T09:43:55.642Z,99553.09
2022-12-16T09:46:43.987Z,99552.84
2022-12-16T09:49:34.818Z,99553.50
2022-12-16T09:52:20.760Z,99555.91
2022-12-16T09:55:07.252Z,99568.16
2022-12-16T09:57:54.257Z,99570.22
2022-12-16T10:00:41.346Z,99568.72
2022-12-16T10:03:33.956Z,99571.53
2022-12-16T10:06:22.107Z,99564.97
2022-12-16T10:09:12.005Z,99557.50
2022-12-16T10:12:01.990Z,99562.38
2022-12-16T10:15:01.796Z,99568.38
2022-12-16T10:17:46.605Z,99563.72
2022-12-16T10:20:34.921Z,99561.25
2022-12-16T10:23:23.722Z,99563.38
2022-12-16T10:26:13.157Z,99561.03
2022-12-16T10:29:03.426Z,99562.41
2022-12-16T10:31:49.311Z,99561.03
2022-12-16T10:34:36.998Z,99556.28
2022-12-16T10:37:21.064Z,99563.00
2022-12-16T10:40:08.783Z,99555.78
2022-12-16T10:42:55.619Z,99562.38
2022-12-16T10:45:44.138Z,99553.91
2022-12-16T10:48:29.601Z,99556.34
2022-12-16T10:51:14.984Z,99555.97
2022-12-16T10:53:59.779Z,99552.66
2022-12-16T10:56:55.702Z,99556.88
2022-12-16T10:59:42.609Z,99569.31
2022-12-16T11:02:37.800Z,99569.31
2022-12-16T11:05:40.038Z,99573.56
2022-12-16T11:08:39.974Z,99574.63
2022-12-16T11:11:30.492Z,99572.78
2022-12-16T11:14:27.530Z,99571.00
2022-12-16T11:17:29.251Z,99573.81
2022-12-16T11:20:26.308Z,99576.78
2022-12-16T11:23:22.071Z,99580.16
2022-12-16T11:26:21.140Z,99582.56
2022-12-16T11:29:20.035Z,99586.91
2022-12-16T11:32:08.428Z,99593.00
2022-12-16T11:34:55.315Z,99590.56
2022-12-16T11:37:42.838Z,99594.84
2022-12-16T11:40:31.042Z,99590.16
2022-12-16T11:43:17.208Z,99593.81
2022-12-16T11:46:02.821Z,99607.03
2022-12-16T11:49:03.404Z,99601.97
2022-12-16T11:51:51.347Z,99610.72
2022-12-16T11:54:45.247Z,99605.16
2022-12-16T11:57:35.695Z,99610.00
2022-12-16T12:00:22.288Z,99611.28
2022-12-16T12:03:09.267Z,99614.81
2022-12-16T12:05:57.098Z,99623.66
2022-12-16T12:08:46.130Z,99623.34
2022-12-16T12:11:37.073Z,99615.19
2022-12-16T12:14:28.507Z,99616.81
2022-12-16T12:17:18.395Z,99616.56
2022-12-16T12:20:08.601Z,99633.81
2022-12-16T12:22:54.663Z,99629.63
2022-12-16T12:25:42.461Z,99628.00
2022-12-16T12:28:35.153Z,99643.81
2022-12-16T12:31:29.487Z,99643.97
2022-12-16T12:34:19.488Z,99641.06
2022-12-16T12:37:07.865Z,99645.53
2022-12-16T12:39:55.656Z,99654.81
2022-12-16T12:42:49.607Z,99655.69
2022-12-16T12:45:56.102Z,99657.16
2022-12-16T12:48:43.401Z,99649.91
2022-12-16T12:51:31.429Z,99661.91
2022-12-16T12:54:21.370Z,99659.25
2022-12-16T12:57:07.538Z,99655.50
2022-12-16T13:00:02.225Z,99654.44
2022-12-16T13:02:56.321Z,99654.09
2022-12-16T13:05:42.874Z,99656.56
2022-12-16T13:08:42.876Z,99655.88
2022-12-16T13:11:35.016Z,99662.03
2022-12-16T13:14:20.591Z,99662.44
2022-12-16T13:17:25.464Z,99665.25
2022-12-16T13:20:18.220Z,99666.84
2022-12-16T13:23:04.203Z,99670.13
2022-12-16T13:25:55.942Z,99673.72
2022-12-16T13:28:42.528Z,99676.34
2022-12-16T13:31:27.757Z,99684.81
2022-12-16T13:34:13.486Z,99682.44
2022-12-16T13:37:04.373Z,99689.28
2022-12-16T13:39:49.444Z,99698.13
2022-12-16T13:42:50.554Z,99704.03
2022-12-16T13:45:43.577Z,99706.03
2022-12-16T13:48:44.043Z,99703.41
2022-12-16T13:51:49.766Z,99705.50
2022-12-16T13:54:35.884Z,99715.66
2022-12-16T13:57:21.858Z,99717.41
2022-12-16T14:00:21.728Z,99718.25
2022-12-16T14:03:09.310Z,99728.91
2022-12-16T14:05:55.782Z,99727.19
2022-12-16T14:08:42.185Z,99734.78
2022-12-16T14:11:39.657Z,99744.31
2022-12-16T14:14:26.923Z,99747.41
2022-12-16T14:17:13.948Z,99752.53
2022-12-16T14:20:05.453Z,99750.41
2022-12-16T14:22:59.957Z,99760.69
2022-12-16T14:25:44.930Z,99760.47
2022-12-16T14:28:38.141Z,99763.38
2022-12-16T14:31:24.153Z,99771.78
2022-12-16T14:34:11.991Z,99780.09
2022-12-16T14:36:57.904Z,99787.41
2022-12-16T14:39:48.870Z,99783.41
2022-12-16T14:42:37.165Z,99786.75
2022-12-16T14:45:24.133Z,99791.91
2022-12-16T14:48:09.123Z,99796.78
2022-12-16T14:50:54.232Z,99806.19
2022-12-16T14:53:39.970Z,99813.34
2022-12-16T14:56:28.832Z,99804.19
2022-12-16T14:59:25.256Z,99807.81
2022-12-16T15:02:13.971Z,99808.16
2022-12-16T15:04:59.313Z,99808.75
2022-12-16T15:07:47.878Z,99804.97
2022-12-16T15:10:33.840Z,99815.88
2022-12-16T15:13:19.066Z,99817.44
2022-12-16T15:16:05.824Z,99820.91
2022-12-16T15:18:54.095Z,99824.91
2022-12-16T15:21:38.781Z,99834.16
2022-12-16T15:24:26.051Z,99836.28
2022-12-16T15:27:27.358Z,99848.28
2022-12-16T15:30:12.369Z,99850.69
2022-12-16T15:33:00.529Z,99851.59
2022-12-16T15:35:48.446Z,99858.31
2022-12-16T15:38:40.486Z,99864.81
2022-12-16T15:41:25.828Z,99871.91
2022-12-16T15:44:10.622Z,99875.00
2022-12-16T15:46:55.832Z,99888.22
2022-12-16T15:49:42.971Z,99891.53
2022-12-16T15:52:47.835Z,99888.63
2022-12-16T15:55:43.836Z,99891.09
2022-12-16T15:58:33.247Z,99896.53
2022-12-16T16:01:18.860Z,99893.69
2022-12-16T16:04:08.697Z,99898.31
2022-12-16T16:06:54.385Z,99896.34
2022-12-16T16:09:41.637Z,99896.03
2022-12-16T16:12:27.448Z,99902.06
2022-12-16T16:15:12.214Z,99912.72
2022-12-16T16:17:57.087Z,99909.31
2022-12-16T16:20:53.428Z,99916.34
2022-12-16T16:23:38.216Z,99918.56
2022-12-16T16:26:24.549Z,99931.34
2022-12-16T16:29:09.752Z,99932.84
2022-12-16T16:31:57.158Z,99938.31
2022-12-16T16:35:00.541Z,99939.50
2022-12-16T16:37:45.572Z,99948.63
2022-12-16T16:40:37.810Z,99954.25
2022-12-16T16:43:23.862Z,99954.59
2022-12-16T16:46:11.947Z,99951.28
2022-12-16T16:48:57.159Z,99961.63
2022-12-16T16:51:41.936Z,99954.03
2022-12-16T16:54:26.862Z,99964.00
2022-12-16T16:57:11.697Z,99972.16
2022-12-16T16:59:57.904Z,99968.66
2022-12-16T17:02:43.462Z,99968.00
2022-12-16T17:05:28.821Z,99971.09
2022-12-16T17:08:13.787Z,99979.81
2022-12-16T17:10:58.597Z,99982.66
2022-12-16T17:13:43.383Z,99982.53
2022-12-16T17:16:30.205Z,99979.22
2022-12-16T17:19:15.199Z,99986.25
2022-12-16T17:22:00.279Z,99988.91
2022-12-16T17:24:48.400Z,99999.38
2022-12-16T17:27:36.541Z,99995.53
2022-12-16T17:30:22.379Z,100002.66
2022-12-16T17:33:08.414Z,100012.09
2022-12-16T17:35:53.206Z,100002.75
2022-12-16T17:38:38.091Z,100000.91
2022-12-16T17:41:25.698Z,100006.75
2022-12-16T17:44:11.337Z,100016.53
2022-12-16T17:46:56.569Z,100027.38
2022-12-16T17:49:42.912Z,100025.84
2022-12-16T17:52:27.890Z,100033.34
2022-12-16T17:55:12.704Z,100029.91
2022-12-16T17:57:57.613Z,100033.00
2022-12-16T18:00:42.698Z,100032.69
2022-12-16T18:03:27.760Z,100042.56
2022-12-16T18:06:15.815Z,100046.97
2022-12-16T18:09:00.847Z,100045.00
2022-12-16T18:11:45.589Z,100051.91
2022-12-16T18:14:30.668Z,100058.28
2022-12-16T18:17:15.523Z,100057.28
2022-12-16T18:20:00.341Z,100057.06
2022-12-16T18:22:46.538Z,100053.56
2022-12-16T18:25:31.518Z,100061.91
2022-12-16T18:28:19.324Z,100066.19
2022-12-16T18:31:04.407Z,100060.13
2022-12-16T18:33:49.462Z,100061.66
2022-12-16T18:36:34.206Z,100072.00
2022-12-16T18:39:20.231Z,100078.81
2022-12-16T18:42:05.522Z,100080.56
2022-12-16T18:45:02.385Z,100081.53
2022-12-16T18:47:47.156Z,100086.94
2022-12-16T18:50:37.532Z,100089.47
2022-12-16T18:53:23.786Z,100103.41
2022-12-16T18:56:18.769Z,100103.94
2022-12-16T18:59:03.818Z,100106.25
2022-12-16T19:01:48.702Z,100102.06
2022-12-16T19:04:33.518Z,100118.09
2022-12-16T19:07:18.428Z,100115.34
2022-12-16T19:10:03.162Z,100117.84
2022-12-16T19:12:49.134Z,100122.28
2022-12-16T19:15:38.055Z,100125.56
2022-12-16T19:18:28.550Z,100125.78
2022-12-16T19:21:13.324Z,100131.94
2022-12-16T19:24:01.463Z,100139.53
2022-12-16T19:26:46.347Z,100136.75
2022-12-16T19:29:32.352Z,100138.72
2022-12-16T19:32:17.231Z,100144.19
2022-12-16T19:35:02.591Z,100152.31
2022-12-16T19:37:47.407Z,100153.84
2022-12-16T19:40:32.308Z,100161.28
2022-12-16T19:43:31.508Z,100154.91
2022-12-16T19:46:17.638Z,100165.00
2022-12-16T19:49:02.804Z,100166.41
2022-12-16T19:51:47.693Z,100162.13
2022-12-16T19:54:32.595Z,100174.38
2022-12-16T19:57:17.844Z,100182.72
2022-12-16T20:00:02.715Z,100180.09
2022-12-16T20:02:57.861Z,100191.94
2022-12-16T20:05:43.173Z,100197.41
2022-12-16T20:08:28.209Z,100200.44
2022-12-16T20:11:12.939Z,100200.44
2022-12-16T20:13:58.005Z,100207.81
2022-12-16T20:16:45.860Z,100212.91
2022-12-16T20:19:32.021Z,100218.97
2022-12-16T20:22:22.268Z,100218.25
2022-12-16T20:25:07.248Z,100215.03
2022-12-16T20:27:52.087Z,100217.59
2022-12-16T20:30:51.748Z,100210.16
2022-12-16T20:33:36.888Z,100213.84
2022-12-16T20:36:24.029Z,100212.72
2022-12-16T20:39:08.959Z,100224.16
2022-12-16T20:41:56.182Z,100220.69
2022-12-16T20:44:41.620Z,100227.09
2022-12-16T20:47:22.977Z,100228.41
2022-12-16T20:50:07.808Z,100243.31
2022-12-16T20:52:53.791Z,100240.53
2022-12-16T20:55:39.045Z,100247.63
2022-12-16T20:58:24.426Z,100255.69
2022-12-16T21:01:09.678Z,100260.50
2022-12-16T21:03:56.184Z,100258.22
2022-12-16T21:06:41.690Z,100262.53
2022-12-16T21:09:27.726Z,100269.44
2022-12-16T21:12:09.108Z,100281.38
2022-12-16T21:14:53.237Z,100273.06
2022-12-16T21:17:38.443Z,100274.31
2022-12-16T21:20:23.944Z,100283.88
2022-12-16T21:23:15.738Z,100288.41
2022-12-16T21:26:01.948Z,100294.69
2022-12-16T21:28:46.794Z,100290.91
2022-12-16T21:31:31.799Z,100291.25
2022-12-16T21:34:16.564Z,100288.06
2022-12-16T21:37:01.425Z,100293.22
2022-12-16T21:39:46.256Z,100308.78
2022-12-16T21:42:35.504Z,100306.63
2022-12-16T21:45:23.372Z,100316.69
2022-12-16T21:48:10.605Z,100316.91
2022-12-16T21:50:56.551Z,100317.66
2022-12-16T21:53:42.103Z,100326.84
2022-12-16T21:56:28.231Z,100333.09
2022-12-16T21:59:14.257Z,100336.97
2022-12-16T22:01:59.198Z,100346.00
2022-12-16T22:04:44.552Z,100358.19
2022-12-16T22:07:29.483Z,100365.59
2022-12-16T22:10:13.518Z,100362.78
2022-12-16T22:12:58.541Z,100360.16
2022-12-16T22:15:45.312Z,100369.59
2022-12-16T22:18:30.151Z,100375.25
2022-12-16T22:21:16.055Z,100373.13
2022-12-16T22:24:00.812Z,100379.63
2022-12-16T22:26:45.705Z,100376.41
2022-12-16T22:29:29.714Z,100382.91
2022-12-16T22:32:15.861Z,100383.19
2022-12-16T22:35:02.248Z,100397.06
2022-12-16T22:37:46.910Z,100407.47
2022-12-16T22:40:31.646Z,100399.75
2022-12-16T22:43:16.493Z,100397.75
2022-12-16T22:46:01.993Z,100406.00
2022-12-16T22:48:48.505Z,100403.91
2022-12-16T22:51:34.297Z,100413.38
2022-12-16T22:54:19.614Z,100415.41
2022-12-16T22:57:04.911Z,100412.41
2022-12-16T22:59:49.770Z,100420.69
2022-12-16T23:02:34.615Z,100415.94
2022-12-16T23:05:27.136Z,100414.03
2022-12-16T23:08:12.495Z,100415.19
2022-12-16T23:10:57.279Z,100420.97
2022-12-16T23:13:44.017Z,100426.25
2022-12-16T23:16:28.774Z,100427.16
2022-12-16T23:19:13.625Z,100433.56
2022-12-16T23:21:59.838Z,100427.47
2022-12-16T23:24:44.787Z,100435.19
2022-12-16T23:27:29.458Z,100437.63
2022-12-16T23:30:14.274Z,100441.50
2022-12-16T23:32:59.048Z,100446.50
2022-12-16T23:35:43.838Z,100440.47
2022-12-16T23:38:29.938Z,100434.41
2022-12-16T23:41:15.271Z,100443.91
2022-12-16T23:44:00.177Z,100446.63
2022-12-16T23:46:45.488Z,100449.00
2022-12-16T23:49:30.671Z,100458.78
2022-12-16T23:52:15.981Z,100453.47
2022-12-16T23:55:02.284Z,100449.81
2022-12-16T23:57:47.434Z,100460.03
